sensor_id;sensor_type;location;lat;lon;timestamp;P1;durP1;ratioP1;P2;durP2;ratioP2
48040;SDS011;33815;48.386;11.738;2022-07-06T00:02:17;4.90;;;1.67;;
48040;SDS011;33815;48.386;11.738;2022-07-06T00:04:42;3.95;;;2.90;;
48040;SDS011;33815;48.386;11.738;2022-07-06T00:07:08;3.55;;;2.13;;
48040;SDS011;33815;48.386;11.738;2022-07-06T00:09:33;3.17;;;1.80;;
48040;SDS011;33815;48.386;11.738;2022-07-06T00:11:59;4.53;;;1.52;;
48040;SDS011;33815;48.386;11.738;2022-07-06T00:14:25;4.03;;;1.75;;
48040;SDS011;33815;48.386;11.738;2022-07-06T00:16:50;1.70;;;1.60;;
48040;SDS011;33815;48.386;11.738;2022-07-06T00:19:15;2.08;;;1.60;;
48040;SDS011;33815;48.386;11.738;2022-07-06T00:21:41;3.42;;;1.35;;
48040;SDS011;33815;48.386;11.738;2022-07-06T00:24:06;1.58;;;1.48;;
48040;SDS011;33815;48.386;11.738;2022-07-06T00:26:31;4.97;;;1.60;;
48040;SDS011;33815;48.386;11.738;2022-07-06T00:28:56;2.97;;;1.77;;
48040;SDS011;33815;48.386;11.738;2022-07-06T00:31:22;4.15;;;1.58;;
48040;SDS011;33815;48.386;11.738;2022-07-06T00:33:47;1.40;;;1.30;;
48040;SDS011;33815;48.386;11.738;2022-07-06T00:36:12;3.17;;;1.70;;
48040;SDS011;33815;48.386;11.738;2022-07-06T00:38:38;2.85;;;1.80;;
48040;SDS011;33815;48.386;11.738;2022-07-06T00:41:03;4.90;;;2.03;;
48040;SDS011;33815;48.386;11.738;2022-07-06T00:43:28;3.80;;;2.10;;
48040;SDS011;33815;48.386;11.738;2022-07-06T00:46:10;3.67;;;1.45;;
48040;SDS011;33815;48.386;11.738;2022-07-06T00:48:36;3.22;;;1.70;;
48040;SDS011;33815;48.386;11.738;2022-07-06T00:51:01;3.43;;;1.80;;
48040;SDS011;33815;48.386;11.738;2022-07-06T00:53:26;3.00;;;1.88;;
48040;SDS011;33815;48.386;11.738;2022-07-06T00:55:51;4.88;;;1.70;;
48040;SDS011;33815;48.386;11.738;2022-07-06T00:58:17;3.75;;;2.20;;
48040;SDS011;33815;48.386;11.738;2022-07-06T01:00:42;5.85;;;1.90;;
48040;SDS011;33815;48.386;11.738;2022-07-06T01:03:09;3.72;;;1.60;;
48040;SDS011;33815;48.386;11.738;2022-07-06T01:05:35;2.08;;;1.70;;
48040;SDS011;33815;48.386;11.738;2022-07-06T01:08:00;3.45;;;1.90;;
48040;SDS011;33815;48.386;11.738;2022-07-06T01:10:25;3.42;;;1.80;;
48040;SDS011;33815;48.386;11.738;2022-07-06T01:12:51;4.30;;;1.90;;
48040;SDS011;33815;48.386;11.738;2022-07-06T01:15:18;6.85;;;1.90;;
48040;SDS011;33815;48.386;11.738;2022-07-06T01:17:45;2.95;;;1.70;;
48040;SDS011;33815;48.386;11.738;2022-07-06T01:20:14;3.70;;;1.90;;
48040;SDS011;33815;48.386;11.738;2022-07-06T01:22:44;3.35;;;1.95;;
48040;SDS011;33815;48.386;11.738;2022-07-06T01:25:11;4.05;;;2.20;;
48040;SDS011;33815;48.386;11.738;2022-07-06T01:27:38;3.60;;;1.70;;
48040;SDS011;33815;48.386;11.738;2022-07-06T01:30:08;3.40;;;1.73;;
48040;SDS011;33815;48.386;11.738;2022-07-06T01:32:36;3.60;;;2.05;;
48040;SDS011;33815;48.386;11.738;2022-07-06T01:35:02;2.50;;;1.80;;
48040;SDS011;33815;48.386;11.738;2022-07-06T01:37:28;3.72;;;1.75;;
48040;SDS011;33815;48.386;11.738;2022-07-06T01:39:53;2.42;;;2.17;;
48040;SDS011;33815;48.386;11.738;2022-07-06T01:42:18;2.97;;;2.00;;
48040;SDS011;33815;48.386;11.738;2022-07-06T01:44:44;2.10;;;1.90;;
48040;SDS011;33815;48.386;11.738;2022-07-06T01:47:10;4.20;;;2.20;;
48040;SDS011;33815;48.386;11.738;2022-07-06T01:49:36;2.10;;;2.00;;
48040;SDS011;33815;48.386;11.738;2022-07-06T01:52:01;2.33;;;1.90;;
48040;SDS011;33815;48.386;11.738;2022-07-06T01:54:27;6.95;;;2.33;;
48040;SDS011;33815;48.386;11.738;2022-07-06T01:56:52;2.75;;;1.85;;
48040;SDS011;33815;48.386;11.738;2022-07-06T01:59:18;1.90;;;1.80;;
48040;SDS011;33815;48.386;11.738;2022-07-06T02:01:43;4.03;;;1.95;;
48040;SDS011;33815;48.386;11.738;2022-07-06T02:04:08;8.90;;;2.47;;
48040;SDS011;33815;48.386;11.738;2022-07-06T02:06:33;4.60;;;2.20;;
48040;SDS011;33815;48.386;11.738;2022-07-06T02:08:59;3.28;;;2.97;;
48040;SDS011;33815;48.386;11.738;2022-07-06T02:11:24;2.40;;;2.20;;
48040;SDS011;33815;48.386;11.738;2022-07-06T02:13:49;2.63;;;1.95;;
48040;SDS011;33815;48.386;11.738;2022-07-06T02:16:15;2.10;;;1.90;;
48040;SDS011;33815;48.386;11.738;2022-07-06T02:18:40;2.35;;;1.90;;
48040;SDS011;33815;48.386;11.738;2022-07-06T02:21:05;2.30;;;2.10;;
48040;SDS011;33815;48.386;11.738;2022-07-06T02:23:31;2.13;;;2.00;;
48040;SDS011;33815;48.386;11.738;2022-07-06T02:25:56;2.03;;;1.70;;
48040;SDS011;33815;48.386;11.738;2022-07-06T02:28:21;5.05;;;2.25;;
48040;SDS011;33815;48.386;11.738;2022-07-06T02:30:47;2.58;;;2.45;;
48040;SDS011;33815;48.386;11.738;2022-07-06T02:33:12;6.15;;;2.28;;
48040;SDS011;33815;48.386;11.738;2022-07-06T02:35:38;3.83;;;2.20;;
48040;SDS011;33815;48.386;11.738;2022-07-06T02:38:07;2.30;;;2.10;;
48040;SDS011;33815;48.386;11.738;2022-07-06T02:40:32;5.65;;;2.63;;
48040;SDS011;33815;48.386;11.738;2022-07-06T02:42:57;2.40;;;2.20;;
48040;SDS011;33815;48.386;11.738;2022-07-06T02:45:23;2.83;;;2.25;;
48040;SDS011;33815;48.386;11.738;2022-07-06T02:47:48;2.60;;;2.20;;
48040;SDS011;33815;48.386;11.738;2022-07-06T02:50:13;2.40;;;2.20;;
48040;SDS011;33815;48.386;11.738;2022-07-06T02:52:39;2.50;;;2.30;;
48040;SDS011;33815;48.386;11.738;2022-07-06T02:55:04;6.90;;;2.90;;
48040;SDS011;33815;48.386;11.738;2022-07-06T02:57:30;2.40;;;2.20;;
48040;SDS011;33815;48.386;11.738;2022-07-06T02:59:55;2.92;;;2.53;;
48040;SDS011;33815;48.386;11.738;2022-07-06T03:02:20;3.27;;;2.03;;
48040;SDS011;33815;48.386;11.738;2022-07-06T03:04:45;3.75;;;2.25;;
48040;SDS011;33815;48.386;11.738;2022-07-06T03:07:11;2.72;;;2.50;;
48040;SDS011;33815;48.386;11.738;2022-07-06T03:09:36;2.75;;;2.42;;
48040;SDS011;33815;48.386;11.738;2022-07-06T03:12:01;4.22;;;2.50;;
48040;SDS011;33815;48.386;11.738;2022-07-06T03:14:27;5.20;;;2.40;;
48040;SDS011;33815;48.386;11.738;2022-07-06T03:16:53;3.17;;;2.88;;
48040;SDS011;33815;48.386;11.738;2022-07-06T03:19:18;2.83;;;2.45;;
48040;SDS011;33815;48.386;11.738;2022-07-06T03:21:44;2.60;;;2.30;;
48040;SDS011;33815;48.386;11.738;2022-07-06T03:24:10;2.60;;;2.40;;
48040;SDS011;33815;48.386;11.738;2022-07-06T03:26:35;2.60;;;2.30;;
48040;SDS011;33815;48.386;11.738;2022-07-06T03:29:00;4.18;;;2.35;;
48040;SDS011;33815;48.386;11.738;2022-07-06T03:31:26;2.75;;;2.30;;
48040;SDS011;33815;48.386;11.738;2022-07-06T03:33:51;3.78;;;2.33;;
48040;SDS011;33815;48.386;11.738;2022-07-06T03:36:17;2.72;;;2.45;;
48040;SDS011;33815;48.386;11.738;2022-07-06T03:38:42;3.28;;;2.45;;
48040;SDS011;33815;48.386;11.738;2022-07-06T03:41:08;6.00;;;2.75;;
48040;SDS011;33815;48.386;11.738;2022-07-06T03:43:33;2.80;;;2.58;;
48040;SDS011;33815;48.386;11.738;2022-07-06T03:45:58;4.60;;;2.65;;
48040;SDS011;33815;48.386;11.738;2022-07-06T03:48:24;3.40;;;3.08;;
48040;SDS011;33815;48.386;11.738;2022-07-06T03:50:49;5.25;;;2.45;;
48040;SDS011;33815;48.386;11.738;2022-07-06T03:53:14;4.30;;;2.60;;
48040;SDS011;33815;48.386;11.738;2022-07-06T03:55:39;3.00;;;2.58;;
48040;SDS011;33815;48.386;11.738;2022-07-06T03:58:05;5.20;;;2.42;;
48040;SDS011;33815;48.386;11.738;2022-07-06T04:00:30;3.85;;;2.78;;
48040;SDS011;33815;48.386;11.738;2022-07-06T04:02:56;2.60;;;2.40;;
48040;SDS011;33815;48.386;11.738;2022-07-06T04:05:21;3.95;;;2.35;;
48040;SDS011;33815;48.386;11.738;2022-07-06T04:07:47;3.10;;;2.60;;
48040;SDS011;33815;48.386;11.738;2022-07-06T04:10:13;7.15;;;3.10;;
48040;SDS011;33815;48.386;11.738;2022-07-06T04:12:43;3.78;;;2.40;;
48040;SDS011;33815;48.386;11.738;2022-07-06T04:15:09;3.33;;;2.80;;
48040;SDS011;33815;48.386;11.738;2022-07-06T04:17:35;2.97;;;2.70;;
48040;SDS011;33815;48.386;11.738;2022-07-06T04:20:21;5.85;;;2.22;;
48040;SDS011;33815;48.386;11.738;2022-07-06T04:22:47;2.90;;;2.22;;
48040;SDS011;33815;48.386;11.738;2022-07-06T04:25:12;3.88;;;2.28;;
48040;SDS011;33815;48.386;11.738;2022-07-06T04:27:38;4.80;;;2.47;;
48040;SDS011;33815;48.386;11.738;2022-07-06T04:30:04;4.75;;;2.50;;
48040;SDS011;33815;48.386;11.738;2022-07-06T04:32:30;2.22;;;2.03;;
48040;SDS011;33815;48.386;11.738;2022-07-06T04:34:55;3.80;;;2.30;;
48040;SDS011;33815;48.386;11.738;2022-07-06T04:37:21;4.00;;;2.88;;
48040;SDS011;33815;48.386;11.738;2022-07-06T04:39:46;2.40;;;2.20;;
48040;SDS011;33815;48.386;11.738;2022-07-06T04:42:11;3.92;;;2.35;;
48040;SDS011;33815;48.386;11.738;2022-07-06T04:44:36;6.07;;;2.47;;
48040;SDS011;33815;48.386;11.738;2022-07-06T04:47:02;2.33;;;2.10;;
48040;SDS011;33815;48.386;11.738;2022-07-06T04:49:27;4.82;;;2.17;;
48040;SDS011;33815;48.386;11.738;2022-07-06T04:51:52;2.60;;;2.40;;
48040;SDS011;33815;48.386;11.738;2022-07-06T04:54:18;5.50;;;2.40;;
48040;SDS011;33815;48.386;11.738;2022-07-06T04:56:43;3.20;;;2.13;;
48040;SDS011;33815;48.386;11.738;2022-07-06T04:59:08;6.03;;;2.35;;
48040;SDS011;33815;48.386;11.738;2022-07-06T05:01:33;2.40;;;2.20;;
48040;SDS011;33815;48.386;11.738;2022-07-06T05:03:59;2.83;;;1.77;;
48040;SDS011;33815;48.386;11.738;2022-07-06T05:06:24;2.50;;;2.30;;
48040;SDS011;33815;48.386;11.738;2022-07-06T05:08:49;2.57;;;2.10;;
48040;SDS011;33815;48.386;11.738;2022-07-06T05:11:15;4.03;;;2.03;;
48040;SDS011;33815;48.386;11.738;2022-07-06T05:13:40;3.65;;;2.20;;
48040;SDS011;33815;48.386;11.738;2022-07-06T05:16:05;3.47;;;2.20;;
48040;SDS011;33815;48.386;11.738;2022-07-06T05:18:31;4.82;;;1.90;;
48040;SDS011;33815;48.386;11.738;2022-07-06T05:20:56;3.67;;;2.07;;
48040;SDS011;33815;48.386;11.738;2022-07-06T05:23:21;7.57;;;2.28;;
48040;SDS011;33815;48.386;11.738;2022-07-06T05:25:47;1.90;;;1.80;;
48040;SDS011;33815;48.386;11.738;2022-07-06T05:28:12;5.97;;;2.30;;
48040;SDS011;33815;48.386;11.738;2022-07-06T05:30:37;2.13;;;1.92;;
48040;SDS011;33815;48.386;11.738;2022-07-06T05:33:02;5.72;;;2.10;;
48040;SDS011;33815;48.386;11.738;2022-07-06T05:35:28;3.80;;;2.13;;
48040;SDS011;33815;48.386;11.738;2022-07-06T05:37:54;2.08;;;1.92;;
48040;SDS011;33815;48.386;11.738;2022-07-06T05:40:19;3.33;;;1.70;;
48040;SDS011;33815;48.386;11.738;2022-07-06T05:42:44;2.30;;;1.70;;
48040;SDS011;33815;48.386;11.738;2022-07-06T05:45:09;3.23;;;2.10;;
48040;SDS011;33815;48.386;11.738;2022-07-06T05:47:35;4.63;;;2.25;;
48040;SDS011;33815;48.386;11.738;2022-07-06T05:50:18;3.70;;;1.95;;
48040;SDS011;33815;48.386;11.738;2022-07-06T05:52:44;5.20;;;2.08;;
48040;SDS011;33815;48.386;11.738;2022-07-06T05:57:45;3.77;;;1.80;;
48040;SDS011;33815;48.386;11.738;2022-07-06T06:00:10;4.70;;;1.73;;
48040;SDS011;33815;48.386;11.738;2022-07-06T06:02:40;1.92;;;1.70;;
48040;SDS011;33815;48.386;11.738;2022-07-06T06:05:07;2.35;;;2.00;;
48040;SDS011;33815;48.386;11.738;2022-07-06T06:07:36;4.50;;;2.45;;
48040;SDS011;33815;48.386;11.738;2022-07-06T06:10:03;2.95;;;1.75;;
48040;SDS011;33815;48.386;11.738;2022-07-06T06:12:29;3.40;;;1.90;;
48040;SDS011;33815;48.386;11.738;2022-07-06T06:14:55;2.67;;;1.80;;
48040;SDS011;33815;48.386;11.738;2022-07-06T06:17:20;2.15;;;1.80;;
48040;SDS011;33815;48.386;11.738;2022-07-06T06:19:45;5.10;;;2.20;;
48040;SDS011;33815;48.386;11.738;2022-07-06T06:22:10;3.13;;;2.13;;
48040;SDS011;33815;48.386;11.738;2022-07-06T06:24:36;3.85;;;2.10;;
48040;SDS011;33815;48.386;11.738;2022-07-06T06:27:01;4.80;;;2.10;;
48040;SDS011;33815;48.386;11.738;2022-07-06T06:29:27;4.80;;;1.60;;
48040;SDS011;33815;48.386;11.738;2022-07-06T06:31:52;3.53;;;1.92;;
48040;SDS011;33815;48.386;11.738;2022-07-06T06:34:17;3.83;;;1.60;;
48040;SDS011;33815;48.386;11.738;2022-07-06T06:36:42;1.80;;;1.70;;
48040;SDS011;33815;48.386;11.738;2022-07-06T06:39:08;7.57;;;2.10;;
48040;SDS011;33815;48.386;11.738;2022-07-06T06:41:33;3.40;;;1.90;;
48040;SDS011;33815;48.386;11.738;2022-07-06T06:43:58;2.35;;;1.75;;
48040;SDS011;33815;48.386;11.738;2022-07-06T06:46:23;2.10;;;1.90;;
48040;SDS011;33815;48.386;11.738;2022-07-06T06:48:49;3.50;;;1.93;;
48040;SDS011;33815;48.386;11.738;2022-07-06T06:51:14;3.25;;;2.10;;
48040;SDS011;33815;48.386;11.738;2022-07-06T06:53:39;2.20;;;2.00;;
48040;SDS011;33815;48.386;11.738;2022-07-06T06:56:05;3.75;;;1.88;;
48040;SDS011;33815;48.386;11.738;2022-07-06T06:58:30;2.90;;;2.15;;
48040;SDS011;33815;48.386;11.738;2022-07-06T07:00:55;3.47;;;2.10;;
48040;SDS011;33815;48.386;11.738;2022-07-06T07:03:21;24.70;;;3.07;;
48040;SDS011;33815;48.386;11.738;2022-07-06T07:05:46;3.57;;;1.90;;
48040;SDS011;33815;48.386;11.738;2022-07-06T07:08:13;5.97;;;1.67;;
48040;SDS011;33815;48.386;11.738;2022-07-06T07:10:38;3.23;;;1.90;;
48040;SDS011;33815;48.386;11.738;2022-07-06T07:13:03;6.00;;;1.70;;
48040;SDS011;33815;48.386;11.738;2022-07-06T07:15:29;2.42;;;1.98;;
48040;SDS011;33815;48.386;11.738;2022-07-06T07:17:54;2.87;;;1.90;;
48040;SDS011;33815;48.386;11.738;2022-07-06T07:20:19;4.07;;;2.03;;
48040;SDS011;33815;48.386;11.738;2022-07-06T07:22:44;5.43;;;1.60;;
48040;SDS011;33815;48.386;11.738;2022-07-06T07:25:10;1.80;;;1.50;;
48040;SDS011;33815;48.386;11.738;2022-07-06T07:27:35;3.75;;;1.70;;
48040;SDS011;33815;48.386;11.738;2022-07-06T07:30:01;1.30;;;1.13;;
48040;SDS011;33815;48.386;11.738;2022-07-06T07:32:26;3.03;;;1.52;;
48040;SDS011;33815;48.386;11.738;2022-07-06T07:34:51;3.25;;;1.65;;
48040;SDS011;33815;48.386;11.738;2022-07-06T07:37:17;2.33;;;1.57;;
48040;SDS011;33815;48.386;11.738;2022-07-06T07:39:42;3.40;;;1.77;;
48040;SDS011;33815;48.386;11.738;2022-07-06T07:42:07;3.03;;;1.67;;
48040;SDS011;33815;48.386;11.738;2022-07-06T07:44:32;2.83;;;1.75;;
48040;SDS011;33815;48.386;11.738;2022-07-06T07:46:58;3.00;;;1.85;;
48040;SDS011;33815;48.386;11.738;2022-07-06T07:49:23;3.42;;;2.05;;
48040;SDS011;33815;48.386;11.738;2022-07-06T07:51:48;4.65;;;1.92;;
48040;SDS011;33815;48.386;11.738;2022-07-06T07:54:14;3.45;;;1.50;;
48040;SDS011;33815;48.386;11.738;2022-07-06T07:56:39;3.22;;;2.10;;
48040;SDS011;33815;48.386;11.738;2022-07-06T07:59:08;2.80;;;1.90;;
48040;SDS011;33815;48.386;11.738;2022-07-06T08:01:34;1.95;;;1.55;;
48040;SDS011;33815;48.386;11.738;2022-07-06T08:03:59;5.10;;;1.60;;
48040;SDS011;33815;48.386;11.738;2022-07-06T08:06:25;3.10;;;1.42;;
48040;SDS011;33815;48.386;11.738;2022-07-06T08:08:50;3.58;;;1.80;;
48040;SDS011;33815;48.386;11.738;2022-07-06T08:11:15;2.83;;;1.77;;
48040;SDS011;33815;48.386;11.738;2022-07-06T08:13:41;2.47;;;1.83;;
48040;SDS011;33815;48.386;11.738;2022-07-06T08:16:06;3.78;;;1.75;;
48040;SDS011;33815;48.386;11.738;2022-07-06T08:18:32;3.78;;;1.70;;
48040;SDS011;33815;48.386;11.738;2022-07-06T08:20:57;2.92;;;1.52;;
48040;SDS011;33815;48.386;11.738;2022-07-06T08:23:23;8.50;;;2.00;;
48040;SDS011;33815;48.386;11.738;2022-07-06T08:25:48;5.35;;;2.08;;
48040;SDS011;33815;48.386;11.738;2022-07-06T08:28:13;2.17;;;1.63;;
48040;SDS011;33815;48.386;11.738;2022-07-06T08:30:39;4.37;;;1.70;;
48040;SDS011;33815;48.386;11.738;2022-07-06T08:33:04;5.33;;;1.70;;
48040;SDS011;33815;48.386;11.738;2022-07-06T08:35:29;6.85;;;2.28;;
48040;SDS011;33815;48.386;11.738;2022-07-06T08:37:55;3.75;;;1.90;;
48040;SDS011;33815;48.386;11.738;2022-07-06T08:40:21;4.97;;;1.85;;
48040;SDS011;33815;48.386;11.738;2022-07-06T08:42:47;2.10;;;1.60;;
48040;SDS011;33815;48.386;11.738;2022-07-06T08:45:18;3.40;;;1.40;;
48040;SDS011;33815;48.386;11.738;2022-07-06T08:47:44;2.33;;;1.33;;
48040;SDS011;33815;48.386;11.738;2022-07-06T08:50:13;1.95;;;1.60;;
48040;SDS011;33815;48.386;11.738;2022-07-06T08:52:39;1.95;;;1.55;;
48040;SDS011;33815;48.386;11.738;2022-07-06T08:55:05;5.57;;;2.17;;
48040;SDS011;33815;48.386;11.738;2022-07-06T08:57:30;3.55;;;2.03;;
48040;SDS011;33815;48.386;11.738;2022-07-06T08:59:56;1.55;;;1.45;;
48040;SDS011;33815;48.386;11.738;2022-07-06T09:02:23;6.85;;;1.80;;
48040;SDS011;33815;48.386;11.738;2022-07-06T09:04:50;8.63;;;1.90;;
48040;SDS011;33815;48.386;11.738;2022-07-06T09:07:19;8.02;;;1.42;;
48040;SDS011;33815;48.386;11.738;2022-07-06T09:09:45;5.95;;;1.92;;
48040;SDS011;33815;48.386;11.738;2022-07-06T09:12:11;5.85;;;1.60;;
48040;SDS011;33815;48.386;11.738;2022-07-06T09:14:38;2.55;;;1.40;;
48040;SDS011;33815;48.386;11.738;2022-07-06T09:17:04;15.37;;;2.83;;
48040;SDS011;33815;48.386;11.738;2022-07-06T09:19:32;4.03;;;1.75;;
48040;SDS011;33815;48.386;11.738;2022-07-06T09:21:59;1.85;;;1.60;;
48040;SDS011;33815;48.386;11.738;2022-07-06T09:24:25;6.43;;;2.13;;
48040;SDS011;33815;48.386;11.738;2022-07-06T09:26:54;6.38;;;1.95;;
48040;SDS011;33815;48.386;11.738;2022-07-06T09:29:32;3.80;;;1.88;;
48040;SDS011;33815;48.386;11.738;2022-07-06T09:31:58;3.70;;;1.50;;
48040;SDS011;33815;48.386;11.738;2022-07-06T09:35:02;2.05;;;1.65;;
48040;SDS011;33815;48.386;11.738;2022-07-06T09:37:21;6.03;;;1.75;;
48040;SDS011;33815;48.386;11.738;2022-07-06T09:39:48;6.03;;;1.60;;
48040;SDS011;33815;48.386;11.738;2022-07-06T09:42:13;2.70;;;2.00;;
48040;SDS011;33815;48.386;11.738;2022-07-06T09:44:40;3.55;;;1.40;;
48040;SDS011;33815;48.386;11.738;2022-07-06T09:47:10;5.00;;;1.60;;
48040;SDS011;33815;48.386;11.738;2022-07-06T09:49:36;6.70;;;1.85;;
48040;SDS011;33815;48.386;11.738;2022-07-06T09:52:04;4.25;;;2.28;;
48040;SDS011;33815;48.386;11.738;2022-07-06T09:54:32;4.00;;;1.65;;
48040;SDS011;33815;48.386;11.738;2022-07-06T09:57:02;2.45;;;1.67;;
48040;SDS011;33815;48.386;11.738;2022-07-06T09:59:29;3.83;;;1.42;;
48040;SDS011;33815;48.386;11.738;2022-07-06T10:01:56;3.22;;;1.70;;
48040;SDS011;33815;48.386;11.738;2022-07-06T10:04:24;3.30;;;1.60;;
48040;SDS011;33815;48.386;11.738;2022-07-06T10:06:50;3.97;;;1.70;;
48040;SDS011;33815;48.386;11.738;2022-07-06T10:09:16;5.03;;;2.03;;
48040;SDS011;33815;48.386;11.738;2022-07-06T10:11:45;2.88;;;1.90;;
48040;SDS011;33815;48.386;11.738;2022-07-06T10:14:15;4.03;;;1.67;;
48040;SDS011;33815;48.386;11.738;2022-07-06T10:16:43;3.95;;;1.58;;
48040;SDS011;33815;48.386;11.738;2022-07-06T10:19:10;4.30;;;1.63;;
48040;SDS011;33815;48.386;11.738;2022-07-06T10:21:37;2.20;;;1.58;;
48040;SDS011;33815;48.386;11.738;2022-07-06T10:24:04;6.00;;;2.08;;
48040;SDS011;33815;48.386;11.738;2022-07-06T10:26:32;2.30;;;1.50;;
48040;SDS011;33815;48.386;11.738;2022-07-06T10:28:58;2.33;;;1.58;;
48040;SDS011;33815;48.386;11.738;2022-07-06T10:31:25;3.50;;;1.88;;
48040;SDS011;33815;48.386;11.738;2022-07-06T10:33:51;1.45;;;1.35;;
48040;SDS011;33815;48.386;11.738;2022-07-06T10:36:18;4.47;;;1.70;;
48040;SDS011;33815;48.386;11.738;2022-07-06T10:38:46;3.25;;;1.30;;
48040;SDS011;33815;48.386;11.738;2022-07-06T10:41:14;2.30;;;1.55;;
48040;SDS011;33815;48.386;11.738;2022-07-06T10:43:43;3.47;;;1.55;;
48040;SDS011;33815;48.386;11.738;2022-07-06T10:46:11;1.75;;;1.65;;
48040;SDS011;33815;48.386;11.738;2022-07-06T10:48:42;3.92;;;1.40;;
48040;SDS011;33815;48.386;11.738;2022-07-06T10:51:25;11.10;;;1.65;;
48040;SDS011;33815;48.386;11.738;2022-07-06T10:53:55;6.97;;;1.52;;
48040;SDS011;33815;48.386;11.738;2022-07-06T10:56:36;2.85;;;1.63;;
48040;SDS011;33815;48.386;11.738;2022-07-06T10:59:08;2.97;;;1.95;;
48040;SDS011;33815;48.386;11.738;2022-07-06T11:01:35;3.25;;;1.27;;
48040;SDS011;33815;48.386;11.738;2022-07-06T11:06:27;5.40;;;1.38;;
48040;SDS011;33815;48.386;11.738;2022-07-06T11:08:56;4.10;;;1.20;;
48040;SDS011;33815;48.386;11.738;2022-07-06T11:14:13;9.43;;;1.60;;
48040;SDS011;33815;48.386;11.738;2022-07-06T11:19:15;1.52;;;1.30;;
48040;SDS011;33815;48.386;11.738;2022-07-06T11:24:11;1.48;;;1.38;;
48040;SDS011;33815;48.386;11.738;2022-07-06T11:26:42;2.08;;;1.20;;
48040;SDS011;33815;48.386;11.738;2022-07-06T11:29:11;6.55;;;1.45;;
48040;SDS011;33815;48.386;11.738;2022-07-06T11:31:39;1.80;;;1.30;;
48040;SDS011;33815;48.386;11.738;2022-07-06T11:34:07;11.60;;;2.58;;
48040;SDS011;33815;48.386;11.738;2022-07-06T11:36:34;3.53;;;1.30;;
48040;SDS011;33815;48.386;11.738;2022-07-06T11:39:00;4.60;;;1.45;;
48040;SDS011;33815;48.386;11.738;2022-07-06T11:41:25;1.20;;;1.13;;
48040;SDS011;33815;48.386;11.738;2022-07-06T11:43:51;12.00;;;1.60;;
48040;SDS011;33815;48.386;11.738;2022-07-06T11:46:17;2.42;;;1.45;;
48040;SDS011;33815;48.386;11.738;2022-07-06T11:48:47;2.45;;;1.20;;
48040;SDS011;33815;48.386;11.738;2022-07-06T11:51:14;3.72;;;1.45;;
48040;SDS011;33815;48.386;11.738;2022-07-06T11:53:47;2.40;;;1.40;;
48040;SDS011;33815;48.386;11.738;2022-07-06T11:56:14;1.63;;;1.25;;
48040;SDS011;33815;48.386;11.738;2022-07-06T11:58:41;4.00;;;1.40;;
48040;SDS011;33815;48.386;11.738;2022-07-06T12:01:09;6.97;;;1.40;;
48040;SDS011;33815;48.386;11.738;2022-07-06T12:03:36;3.25;;;1.40;;
48040;SDS011;33815;48.386;11.738;2022-07-06T12:06:02;3.42;;;1.15;;
48040;SDS011;33815;48.386;11.738;2022-07-06T12:08:31;1.65;;;1.50;;
48040;SDS011;33815;48.386;11.738;2022-07-06T12:10:58;4.03;;;1.50;;
48040;SDS011;33815;48.386;11.738;2022-07-06T12:13:25;2.80;;;1.20;;
48040;SDS011;33815;48.386;11.738;2022-07-06T12:15:50;2.50;;;1.20;;
48040;SDS011;33815;48.386;11.738;2022-07-06T12:18:15;4.70;;;1.27;;
48040;SDS011;33815;48.386;11.738;2022-07-06T12:20:41;2.03;;;1.30;;
48040;SDS011;33815;48.386;11.738;2022-07-06T12:23:07;6.13;;;1.20;;
48040;SDS011;33815;48.386;11.738;2022-07-06T12:25:36;2.00;;;1.10;;
48040;SDS011;33815;48.386;11.738;2022-07-06T12:28:02;4.78;;;1.15;;
48040;SDS011;33815;48.386;11.738;2022-07-06T12:30:28;5.07;;;1.20;;
48040;SDS011;33815;48.386;11.738;2022-07-06T12:33:10;2.03;;;0.93;;
48040;SDS011;33815;48.386;11.738;2022-07-06T12:35:37;3.00;;;1.00;;
48040;SDS011;33815;48.386;11.738;2022-07-06T12:38:02;2.50;;;1.30;;
48040;SDS011;33815;48.386;11.738;2022-07-06T12:40:28;5.43;;;1.00;;
48040;SDS011;33815;48.386;11.738;2022-07-06T12:42:54;2.17;;;1.55;;
48040;SDS011;33815;48.386;11.738;2022-07-06T12:45:19;2.63;;;1.63;;
48040;SDS011;33815;48.386;11.738;2022-07-06T12:48:01;4.28;;;1.40;;
48040;SDS011;33815;48.386;11.738;2022-07-06T12:50:37;4.85;;;1.45;;
48040;SDS011;33815;48.386;11.738;2022-07-06T12:53:04;4.18;;;1.15;;
48040;SDS011;33815;48.386;11.738;2022-07-06T12:55:30;2.65;;;1.27;;
48040;SDS011;33815;48.386;11.738;2022-07-06T12:57:57;1.30;;;1.20;;
48040;SDS011;33815;48.386;11.738;2022-07-06T13:00:23;2.85;;;1.23;;
48040;SDS011;33815;48.386;11.738;2022-07-06T13:02:50;3.22;;;1.30;;
48040;SDS011;33815;48.386;11.738;2022-07-06T13:05:23;1.45;;;1.00;;
48040;SDS011;33815;48.386;11.738;2022-07-06T13:07:53;2.00;;;1.08;;
48040;SDS011;33815;48.386;11.738;2022-07-06T13:10:19;2.17;;;1.10;;
48040;SDS011;33815;48.386;11.738;2022-07-06T13:12:45;3.88;;;1.27;;
48040;SDS011;33815;48.386;11.738;2022-07-06T13:15:11;1.98;;;1.38;;
48040;SDS011;33815;48.386;11.738;2022-07-06T13:17:36;3.22;;;1.10;;
48040;SDS011;33815;48.386;11.738;2022-07-06T13:20:02;5.57;;;1.20;;
48040;SDS011;33815;48.386;11.738;2022-07-06T13:22:28;2.78;;;1.30;;
48040;SDS011;33815;48.386;11.738;2022-07-06T13:24:53;1.42;;;1.10;;
48040;SDS011;33815;48.386;11.738;2022-07-06T13:27:19;2.30;;;1.10;;
48040;SDS011;33815;48.386;11.738;2022-07-06T13:29:44;7.60;;;1.17;;
48040;SDS011;33815;48.386;11.738;2022-07-06T13:32:09;2.87;;;1.10;;
48040;SDS011;33815;48.386;11.738;2022-07-06T13:34:34;3.35;;;1.15;;
48040;SDS011;33815;48.386;11.738;2022-07-06T13:37:00;2.83;;;1.10;;
48040;SDS011;33815;48.386;11.738;2022-07-06T13:39:25;3.28;;;0.90;;
48040;SDS011;33815;48.386;11.738;2022-07-06T13:41:52;1.77;;;1.30;;
48040;SDS011;33815;48.386;11.738;2022-07-06T13:44:18;1.33;;;1.02;;
48040;SDS011;33815;48.386;11.738;2022-07-06T13:46:43;4.68;;;1.40;;
48040;SDS011;33815;48.386;11.738;2022-07-06T13:49:09;2.85;;;2.22;;
48040;SDS011;33815;48.386;11.738;2022-07-06T13:51:34;1.92;;;1.00;;
48040;SDS011;33815;48.386;11.738;2022-07-06T13:54:00;2.63;;;0.90;;
48040;SDS011;33815;48.386;11.738;2022-07-06T13:56:26;1.00;;;1.00;;
48040;SDS011;33815;48.386;11.738;2022-07-06T13:58:52;1.83;;;1.00;;
48040;SDS011;33815;48.386;11.738;2022-07-06T14:01:18;1.60;;;1.50;;
48040;SDS011;33815;48.386;11.738;2022-07-06T14:03:44;3.08;;;1.30;;
48040;SDS011;33815;48.386;11.738;2022-07-06T14:06:09;1.50;;;1.00;;
48040;SDS011;33815;48.386;11.738;2022-07-06T14:08:35;2.42;;;1.38;;
48040;SDS011;33815;48.386;11.738;2022-07-06T14:11:03;4.07;;;1.33;;
48040;SDS011;33815;48.386;11.738;2022-07-06T14:13:29;1.90;;;1.15;;
48040;SDS011;33815;48.386;11.738;2022-07-06T14:15:54;2.83;;;1.50;;
48040;SDS011;33815;48.386;11.738;2022-07-06T14:18:19;1.55;;;1.20;;
48040;SDS011;33815;48.386;11.738;2022-07-06T14:20:45;3.63;;;1.15;;
48040;SDS011;33815;48.386;11.738;2022-07-06T14:23:12;2.40;;;1.50;;
48040;SDS011;33815;48.386;11.738;2022-07-06T14:25:38;1.98;;;1.30;;
48040;SDS011;33815;48.386;11.738;2022-07-06T14:28:05;2.30;;;1.40;;
48040;SDS011;33815;48.386;11.738;2022-07-06T14:30:31;4.13;;;1.25;;
48040;SDS011;33815;48.386;11.738;2022-07-06T14:32:57;4.72;;;1.60;;
48040;SDS011;33815;48.386;11.738;2022-07-06T14:35:22;2.30;;;1.30;;
48040;SDS011;33815;48.386;11.738;2022-07-06T14:37:49;2.13;;;1.13;;
48040;SDS011;33815;48.386;11.738;2022-07-06T14:40:15;3.38;;;1.27;;
48040;SDS011;33815;48.386;11.738;2022-07-06T14:42:40;1.27;;;0.90;;